createdAt,value
2022-12-22T08:59:09.196Z,43.85
2022-12-22T09:01:38.835Z,44.45
2022-12-22T09:04:07.826Z,46.67
2022-12-22T09:06:40.807Z,45.70
2022-12-22T09:09:11.253Z,46.90
2022-12-22T09:11:39.539Z,44.00
2022-12-22T09:14:09.487Z,41.70
2022-12-22T09:16:37.433Z,43.60
2022-12-22T09:19:06.279Z,44.10
2022-12-22T09:21:33.881Z,43.08
2022-12-22T09:24:01.270Z,42.75
2022-12-22T09:26:29.951Z,40.92
2022-12-22T09:28:58.672Z,40.25
2022-12-22T09:31:27.628Z,41.55
2022-12-22T09:33:55.252Z,38.38
2022-12-22T09:36:24.845Z,38.50
2022-12-22T09:38:52.684Z,36.47
2022-12-22T09:41:32.209Z,40.25
2022-12-22T09:44:04.220Z,38.95
2022-12-22T09:46:36.253Z,40.20
2022-12-22T09:49:06.046Z,44.42
2022-12-22T09:51:40.303Z,45.28
2022-12-22T09:54:10.535Z,42.13
2022-12-22T09:56:37.914Z,45.00
2022-12-22T09:59:11.118Z,39.80
2022-12-22T10:02:15.541Z,37.85
2022-12-22T10:04:55.160Z,35.47
2022-12-22T10:07:29.044Z,36.22
2022-12-22T10:09:56.436Z,35.00
2022-12-22T10:12:26.702Z,35.63
2022-12-22T10:14:55.252Z,36.88
2022-12-22T10:17:28.102Z,34.00
2022-12-22T10:20:09.496Z,39.58
2022-12-22T10:22:48.017Z,39.95
2022-12-22T10:25:35.864Z,45.60
2022-12-22T10:28:20.732Z,44.47
2022-12-22T10:30:48.465Z,46.00
2022-12-22T10:33:19.497Z,47.65
2022-12-22T10:35:52.581Z,47.92
2022-12-22T10:38:23.802Z,49.67
2022-12-22T10:41:01.592Z,47.88
2022-12-22T10:43:32.210Z,45.90
2022-12-22T10:46:00.637Z,43.72
2022-12-22T10:48:34.904Z,41.53
2022-12-22T10:51:05.305Z,33.47
2022-12-22T10:53:51.576Z,41.78
2022-12-22T10:56:23.116Z,40.10
2022-12-22T10:58:52.714Z,37.13
2022-12-22T11:01:30.479Z,36.50
2022-12-22T11:04:15.361Z,36.45
2022-12-22T11:06:44.535Z,33.78
2022-12-22T11:09:32.349Z,34.83
2022-12-22T11:12:07.878Z,37.75
2022-12-22T11:14:48.611Z,36.72
2022-12-22T11:17:23.721Z,37.47
2022-12-22T11:20:06.374Z,33.90
2022-12-22T11:22:41.407Z,35.50
2022-12-22T11:25:26.056Z,35.83
2022-12-22T11:28:10.397Z,37.85
2022-12-22T11:30:48.224Z,32.17
2022-12-22T11:33:26.978Z,36.15
2022-12-22T11:36:00.448Z,35.45
2022-12-22T11:38:45.751Z,34.97
2022-12-22T11:41:31.481Z,35.47
2022-12-22T11:44:17.572Z,36.03
2022-12-22T11:46:53.619Z,38.70
2022-12-22T11:49:33.691Z,34.90
2022-12-22T11:52:15.678Z,34.90
2022-12-22T11:55:09.041Z,39.88
2022-12-22T11:57:45.051Z,36.17
2022-12-22T12:00:15.006Z,36.90
2022-12-22T12:03:31.073Z,35.40
2022-12-22T12:06:18.487Z,36.05
2022-12-22T12:08:59.555Z,36.67
2022-12-22T12:11:33.857Z,38.13
2022-12-22T12:14:09.099Z,37.72
2022-12-22T12:16:43.244Z,38.08
2022-12-22T12:19:34.907Z,38.33
2022-12-22T12:22:05.887Z,36.05
2022-12-22T12:24:59.587Z,40.30
2022-12-22T12:27:42.694Z,39.10
2022-12-22T12:33:06.178Z,40.58
2022-12-22T12:35:47.492Z,41.15
2022-12-22T12:39:05.755Z,41.28
2022-12-22T12:41:24.442Z,38.58
2022-12-22T12:43:54.908Z,38.15
2022-12-22T12:46:45.420Z,40.65
2022-12-22T12:49:50.612Z,34.45
2022-12-22T12:52:17.985Z,38.75
2022-12-22T12:54:47.208Z,37.08
2022-12-22T12:57:30.910Z,34.53
2022-12-22T12:59:59.490Z,31.05
2022-12-22T13:02:33.487Z,29.83
2022-12-22T13:05:02.781Z,29.13
2022-12-22T13:08:07.475Z,27.92
2022-12-22T13:10:41.551Z,29.42
2022-12-22T13:13:14.617Z,29.80
2022-12-22T13:15:44.933Z,30.90
2022-12-22T13:18:49.890Z,38.08
2022-12-22T13:24:30.668Z,32.70
2022-12-22T13:27:04.863Z,33.05
2022-12-22T13:29:42.048Z,33.10
2022-12-22T13:32:21.329Z,34.10
2022-12-22T13:35:29.692Z,35.75
2022-12-22T13:37:49.043Z,33.50
2022-12-22T13:40:19.758Z,32.95
2022-12-22T13:42:50.561Z,34.15
2022-12-22T13:45:28.967Z,33.47
2022-12-22T13:47:56.854Z,37.33
2022-12-22T13:50:29.067Z,35.35
2022-12-22T13:52:58.127Z,32.38
2022-12-22T13:55:28.462Z,44.20
2022-12-22T13:57:59.446Z,36.38
2022-12-22T14:00:29.847Z,33.17
2022-12-22T14:02:57.498Z,34.83
2022-12-22T14:05:32.229Z,33.22
2022-12-22T14:08:01.989Z,36.50
2022-12-22T14:10:34.235Z,35.80
2022-12-22T14:13:06.717Z,38.40
2022-12-22T14:15:37.682Z,38.17
2022-12-22T14:18:06.568Z,39.17
2022-12-22T14:20:36.544Z,36.72
2022-12-22T14:23:07.271Z,40.08
2022-12-22T14:25:37.255Z,35.42
2022-12-22T14:28:07.395Z,41.70
2022-12-22T14:30:39.391Z,36.28
2022-12-22T14:33:28.566Z,34.10
2022-12-22T14:36:14.579Z,33.90
2022-12-22T14:38:44.397Z,30.85
2022-12-22T14:41:37.583Z,33.05
2022-12-22T14:44:06.026Z,33.10
2022-12-22T14:46:38.902Z,35.38
2022-12-22T14:49:06.988Z,31.35
2022-12-22T14:51:34.446Z,34.13
2022-12-22T14:54:03.390Z,34.00
2022-12-22T14:56:30.916Z,31.00
2022-12-22T14:59:22.688Z,32.03
2022-12-22T15:01:59.753Z,29.45
2022-12-22T15:04:28.340Z,33.28
2022-12-22T15:07:10.174Z,36.17
2022-12-22T15:14:59.049Z,31.70
2022-12-22T15:17:27.851Z,34.55
2022-12-22T15:19:58.639Z,31.95
2022-12-22T15:22:26.061Z,34.28
2022-12-22T15:24:53.417Z,38.15
2022-12-22T15:27:20.799Z,35.78
2022-12-22T15:29:48.189Z,34.50
2022-12-22T15:32:15.652Z,36.70
2022-12-22T15:34:44.638Z,36.47
2022-12-22T15:37:13.436Z,35.80
2022-12-22T15:39:41.285Z,48.53
2022-12-22T15:42:08.681Z,40.10
2022-12-22T15:44:38.928Z,44.17
2022-12-22T15:47:07.087Z,51.80
2022-12-22T15:49:34.491Z,56.85
2022-12-22T15:52:05.210Z,50.13
2022-12-22T15:54:33.795Z,52.63
2022-12-22T15:57:02.194Z,48.97
2022-12-22T15:59:30.262Z,63.90
2022-12-22T16:04:29.415Z,65.78
2022-12-22T16:06:57.289Z,67.28
2022-12-22T16:09:28.725Z,80.85
2022-12-22T16:11:56.132Z,87.40
2022-12-22T16:14:24.308Z,81.93
2022-12-22T16:16:51.823Z,999.90
2022-12-22T16:19:20.186Z,999.90
2022-12-22T16:21:51.193Z,999.90
2022-12-22T16:24:26.714Z,999.90
2022-12-22T16:26:57.737Z,999.90
2022-12-22T16:29:25.973Z,999.90
2022-12-22T16:31:53.996Z,999.90
2022-12-22T16:36:48.764Z,999.90
2022-12-22T16:39:16.161Z,999.90
2022-12-22T16:41:45.110Z,999.90
2022-12-22T16:47:06.910Z,999.90
2022-12-22T16:49:34.263Z,999.90
2022-12-22T16:52:01.660Z,999.90
2022-12-22T16:54:29.073Z,999.90
2022-12-22T16:56:56.675Z,999.90
2022-12-22T16:59:25.619Z,999.90
2022-12-22T17:01:55.991Z,999.90
2022-12-22T17:04:26.842Z,999.90
2022-12-22T17:06:56.208Z,999.90
2022-12-22T17:09:28.068Z,999.90
2022-12-22T17:11:56.453Z,999.90
2022-12-22T17:14:30.838Z,999.90
2022-12-22T17:17:00.562Z,999.90
2022-12-22T17:19:28.001Z,999.90
2022-12-22T17:21:58.603Z,999.90
2022-12-22T17:24:28.636Z,999.90
2022-12-22T17:26:58.047Z,999.90
2022-12-22T17:29:26.746Z,999.90
2022-12-22T17:31:56.413Z,999.90
2022-12-22T17:34:24.222Z,999.90
2022-12-22T17:36:51.905Z,999.90
2022-12-22T17:39:21.816Z,999.90
2022-12-22T17:41:56.377Z,999.90
2022-12-22T17:44:28.230Z,999.90
2022-12-22T17:46:55.880Z,999.90
2022-12-22T17:49:23.386Z,999.90
2022-12-22T17:51:51.521Z,999.90
2022-12-22T17:54:23.079Z,999.90
2022-12-22T17:56:50.979Z,999.90
2022-12-22T17:59:18.388Z,999.90
2022-12-22T18:01:47.183Z,999.90
2022-12-22T18:04:14.706Z,999.90
2022-12-22T18:06:43.419Z,999.90
2022-12-22T18:09:19.453Z,999.90
2022-12-22T18:11:46.884Z,999.90
2022-12-22T18:14:15.650Z,999.90
2022-12-22T18:16:43.875Z,999.90
2022-12-22T18:19:12.716Z,999.90
2022-12-22T18:21:40.327Z,999.90
2022-12-22T18:24:15.608Z,999.90
2022-12-22T18:26:42.986Z,999.90
2022-12-22T18:29:14.703Z,999.90
2022-12-22T18:31:43.892Z,999.90
2022-12-22T18:34:13.085Z,999.90
2022-12-22T18:36:42.385Z,764.05
2022-12-22T18:39:17.549Z,63.45
2022-12-22T18:41:45.514Z,61.90
2022-12-22T18:44:16.758Z,60.13
2022-12-22T18:46:44.520Z,767.50
2022-12-22T18:49:13.719Z,766.80
2022-12-22T18:51:42.785Z,62.25
2022-12-22T18:54:23.059Z,61.88
2022-12-22T18:56:50.453Z,59.17
2022-12-22T18:59:24.401Z,59.25
2022-12-22T19:01:52.456Z,53.55
2022-12-22T19:04:21.356Z,54.22
2022-12-22T19:06:48.710Z,55.60
2022-12-22T19:09:16.948Z,53.40
2022-12-22T19:11:44.480Z,53.83
2022-12-22T19:14:19.089Z,53.55
2022-12-22T19:16:47.493Z,49.80
2022-12-22T19:19:18.941Z,50.20
2022-12-22T19:21:48.608Z,54.78
2022-12-22T19:24:16.557Z,57.17
2022-12-22T19:26:44.373Z,62.33
2022-12-22T19:29:15.023Z,58.08
2022-12-22T19:31:45.029Z,55.95
2022-12-22T19:34:18.122Z,56.08
2022-12-22T19:36:45.545Z,55.97
2022-12-22T19:39:14.259Z,54.42
2022-12-22T19:41:44.668Z,54.70
2022-12-22T19:44:18.770Z,53.33
2022-12-22T19:46:46.377Z,55.85
2022-12-22T19:49:15.982Z,56.53
2022-12-22T19:51:43.380Z,54.65
2022-12-22T19:54:10.823Z,56.08
2022-12-22T19:56:40.923Z,57.00
2022-12-22T19:59:20.458Z,56.72
2022-12-22T20:01:53.097Z,60.17
2022-12-22T20:04:20.582Z,57.58
2022-12-22T20:06:48.023Z,54.85
2022-12-22T20:09:15.402Z,57.88
2022-12-22T20:11:44.880Z,56.63
2022-12-22T20:14:16.685Z,58.47
2022-12-22T20:16:44.330Z,56.92
2022-12-22T20:19:14.131Z,57.05
2022-12-22T20:21:42.275Z,60.30
2022-12-22T20:24:19.401Z,60.67
2022-12-22T20:26:53.764Z,63.07
2022-12-22T20:29:22.224Z,55.38
2022-12-22T20:31:49.759Z,57.75
2022-12-22T20:34:17.158Z,59.40
2022-12-22T20:36:44.551Z,64.00
2022-12-22T20:39:16.155Z,58.90
2022-12-22T20:41:50.510Z,59.83
2022-12-22T20:44:22.265Z,61.75
2022-12-22T20:46:49.939Z,999.90
2022-12-22T20:49:17.472Z,999.90
2022-12-22T20:51:44.879Z,999.90
2022-12-22T20:54:14.250Z,999.90
2022-12-22T20:56:42.340Z,765.45
2022-12-22T21:01:42.340Z,999.90
2022-12-22T21:04:09.963Z,999.90
2022-12-22T21:06:39.519Z,999.90
2022-12-22T21:09:06.949Z,999.90
2022-12-22T21:11:35.935Z,999.90
2022-12-22T21:14:03.327Z,999.90
2022-12-22T21:16:33.993Z,999.90
2022-12-22T21:19:03.763Z,999.90
2022-12-22T21:21:31.533Z,999.90
2022-12-22T21:23:59.002Z,999.90
2022-12-22T21:26:32.158Z,999.90
2022-12-22T21:29:00.727Z,999.90
2022-12-22T21:31:28.503Z,999.90
2022-12-22T21:33:56.026Z,60.60
2022-12-22T21:36:28.921Z,62.05
2022-12-22T21:38:59.900Z,56.75
2022-12-22T21:41:41.441Z,62.25
2022-12-22T21:44:09.399Z,62.08
2022-12-22T21:46:36.895Z,60.60
2022-12-22T21:49:04.329Z,53.67
2022-12-22T21:51:33.078Z,53.08
2022-12-22T21:54:00.529Z,52.75
2022-12-22T21:56:27.935Z,56.45
2022-12-22T21:59:01.869Z,60.13
2022-12-22T22:01:31.074Z,54.15
2022-12-22T22:03:58.633Z,56.92
2022-12-22T22:06:26.096Z,763.58
2022-12-22T22:08:54.850Z,999.90
2022-12-22T22:11:23.969Z,999.90
2022-12-22T22:13:52.203Z,999.90
2022-12-22T22:16:20.687Z,999.90
2022-12-22T22:18:49.059Z,999.90
2022-12-22T22:21:18.347Z,999.90
2022-12-22T22:23:45.788Z,999.90
2022-12-22T22:26:14.588Z,999.90
2022-12-22T22:28:41.994Z,999.90
2022-12-22T22:31:10.919Z,999.90
2022-12-22T22:33:38.798Z,999.90
2022-12-22T22:36:07.199Z,999.90
2022-12-22T22:38:34.781Z,999.90
2022-12-22T22:41:02.448Z,999.90
2022-12-22T22:43:31.243Z,999.90
2022-12-22T22:45:58.713Z,999.90
2022-12-22T22:48:26.174Z,999.90
2022-12-22T22:50:53.631Z,999.90
2022-12-22T22:53:21.037Z,999.90
2022-12-22T22:55:48.428Z,999.90
2022-12-22T22:58:15.863Z,999.90
2022-12-22T23:00:44.564Z,999.90
2022-12-22T23:03:12.184Z,999.90
2022-12-22T23:05:40.032Z,999.90
2022-12-22T23:08:07.520Z,999.90
2022-12-22T23:10:41.123Z,999.90
2022-12-22T23:13:09.146Z,999.90
2022-12-22T23:15:36.540Z,999.90
2022-12-22T23:18:05.435Z,999.90
2022-12-22T23:20:32.861Z,999.90
2022-12-22T23:23:00.302Z,999.90
2022-12-22T23:25:27.728Z,999.90
2022-12-22T23:27:55.129Z,999.90
2022-12-22T23:30:22.570Z,999.90
2022-12-22T23:32:49.990Z,999.90
2022-12-22T23:35:18.788Z,999.90
2022-12-22T23:37:46.210Z,999.90
2022-12-22T23:43:01.344Z,999.90
2022-12-22T23:45:28.854Z,999.90
2022-12-22T23:47:56.311Z,999.90
2022-12-22T23:50:25.407Z,999.90
2022-12-22T23:52:53.862Z,999.90
2022-12-22T23:55:22.303Z,999.90
2022-12-22T23:57:50.863Z,999.90
